Time;durP1;ratioP1;P1;durP2;ratioP2;P2;SDS_P1;SDS_P2;PMS_P1;PMS_P2;Temp;Humidity;BMP_temperature;BMP_pressure;BME280_temperature;BME280_humidity;BME280_pressure;Samples;Min_cycle;Max_cycle;Signal;HPM_P1;HPM_P2
2021/06/19 00:01:14;;;;;;;6.20;2.65;;;;;;;23.01;66.55;100933.50;4840054;29;20064;-76
2021/06/19 00:03:42;;;;;;;5.55;3.42;;;;;;;23.02;66.66;100935.09;4842055;29;20064;-78
2021/06/19 00:06:10;;;;;;;5.30;2.92;;;;;;;22.67;67.91;100952.53;4856915;29;20073;-72
2021/06/19 00:13:08;;;;;;;5.00;2.42;;;;;;;22.55;68.31;100946.38;4852736;29;20387;-75
2021/06/19 00:15:36;;;;;;;3.70;2.30;;;;;;;22.56;68.46;100950.81;4820332;29;20050;-78
2021/06/19 00:18:03;;;;;;;4.75;2.50;;;;;;;22.41;68.72;100949.84;4820490;29;20065;-79
2021/06/19 00:20:31;;;;;;;6.38;2.15;;;;;;;22.08;69.87;100953.56;4821534;29;20062;-71
2021/06/19 00:22:59;;;;;;;5.95;2.33;;;;;;;21.69;71.23;100945.88;4820125;29;20050;-71
2021/06/19 00:30:04;;;;;;;5.15;2.85;;;;;;;21.79;71.50;100948.03;4820132;29;20505;-78
2021/06/19 00:32:32;;;;;;;4.47;2.50;;;;;;;21.86;70.66;100946.09;4820534;29;20403;-76
2021/06/19 00:34:59;;;;;;;4.18;2.25;;;;;;;21.80;71.25;100939.22;4819944;29;20062;-71
2021/06/19 00:37:27;;;;;;;4.80;2.40;;;;;;;21.97;70.81;100944.22;4819968;29;20509;-72
2021/06/19 00:39:54;;;;;;;6.22;2.50;;;;;;;21.74;71.50;100942.72;4803485;29;20056;-74
2021/06/19 00:42:22;;;;;;;6.05;2.60;;;;;;;21.40;72.88;100952.31;4818670;29;20392;-73
2021/06/19 00:44:49;;;;;;;5.40;2.63;;;;;;;21.53;72.71;100939.69;4820060;29;20058;-71
2021/06/19 00:47:16;;;;;;;7.28;2.60;;;;;;;21.57;72.67;100940.50;4819832;29;20054;-74
2021/06/19 00:49:44;;;;;;;5.10;2.45;;;;;;;21.34;73.45;100948.25;4821400;29;20050;-72
2021/06/19 00:52:11;;;;;;;6.90;2.88;;;;;;;21.40;73.18;100949.50;4821145;29;20051;-72
2021/06/19 00:54:39;;;;;;;6.78;2.70;;;;;;;21.50;73.01;100949.63;4819690;29;20077;-72
2021/06/19 00:57:08;;;;;;;5.28;2.78;;;;;;;21.50;73.24;100949.63;4819502;29;20055;-72
2021/06/19 00:59:36;;;;;;;7.53;2.60;;;;;;;21.49;72.87;100952.81;4821160;29;20529;-74
2021/06/19 01:02:04;;;;;;;6.15;2.50;;;;;;;21.55;73.03;100945.72;4819150;29;20066;-71
2021/06/19 01:04:31;;;;;;;7.43;3.13;;;;;;;21.43;73.14;100949.53;4820640;29;20061;-74
2021/06/19 01:06:59;;;;;;;4.72;2.72;;;;;;;21.19;74.49;100944.44;4820828;29;20050;-73
2021/06/19 01:09:27;;;;;;;6.65;2.47;;;;;;;21.08;74.27;100947.06;4804138;29;20054;-78
2021/06/19 01:16:23;;;;;;;;;;;;;;;21.36;73.35;100932.63;4856862;29;20049;-73
2021/06/19 01:18:50;;;;;;;4.95;2.50;;;;;;;21.39;73.51;100933.88;4856265;29;19924;-75
2021/06/19 01:21:20;;;;;;;5.43;2.80;;;;;;;21.59;72.62;100926.91;4824174;29;20050;-75
2021/06/19 01:23:48;;;;;;;4.47;2.40;;;;;;;21.37;72.74;100911.03;4857321;29;20057;-71
2021/06/19 01:30:55;;;;;;;6.15;3.13;;;;;;;21.05;74.41;100921.81;4859689;29;20038;-71
2021/06/19 01:33:22;;;;;;;9.20;2.80;;;;;;;20.86;75.86;100930.31;4858982;29;20053;-72
2021/06/19 01:35:50;;;;;;;5.15;2.72;;;;;;;21.13;74.88;100941.13;4859729;29;20061;-71
2021/06/19 01:38:18;;;;;;;4.35;2.65;;;;;;;21.03;75.13;100941.81;4842052;29;20050;-71
2021/06/19 01:40:46;;;;;;;6.20;2.65;;;;;;;21.21;74.75;100942.06;4858962;29;20057;-75
2021/06/19 01:43:13;;;;;;;4.68;3.10;;;;;;;21.09;74.62;100956.28;4860170;29;20065;-71
2021/06/19 01:45:40;;;;;;;5.53;3.08;;;;;;;20.91;75.79;100956.00;4860427;29;20053;-74
2021/06/19 01:48:08;;;;;;;6.75;3.05;;;;;;;21.06;75.49;100951.47;4826877;29;20061;-72
2021/06/19 01:50:36;;;;;;;5.50;3.30;;;;;;;20.34;77.64;100956.28;4859137;29;20065;-72
2021/06/19 01:53:05;;;;;;;7.43;3.40;;;;;;;20.80;76.71;100952.22;4813197;29;20060;-72
2021/06/19 01:55:33;;;;;;;6.00;2.57;;;;;;;21.04;75.65;100953.81;4843014;29;20049;-72
2021/06/19 01:58:01;;;;;;;6.50;2.90;;;;;;;21.15;74.77;100963.16;4843356;29;20045;-74
2021/06/19 02:00:31;;;;;;;5.88;2.70;;;;;;;21.27;74.38;100968.53;4842524;29;20049;-70
2021/06/19 02:02:58;;;;;;;7.27;3.20;;;;;;;21.47;73.58;100966.41;4858985;29;20062;-71
2021/06/19 02:05:27;;;;;;;4.85;2.67;;;;;;;21.12;75.17;100961.13;4842330;29;20073;-73
2021/06/19 02:07:57;;;;;;;6.43;3.05;;;;;;;21.23;74.55;100962.09;4843482;29;20054;-72
2021/06/19 02:10:26;;;;;;;6.93;2.78;;;;;;;21.08;75.03;100957.47;4859199;29;20061;-71
2021/06/19 02:12:54;;;;;;;4.00;2.72;;;;;;;21.30;74.51;100969.78;4859410;29;20054;-70
2021/06/19 02:15:23;;;;;;;6.28;3.17;;;;;;;21.12;75.36;100956.34;4858299;29;20382;-73
2021/06/19 02:17:51;;;;;;;4.32;2.80;;;;;;;21.32;74.27;100959.84;4859132;29;20041;-70
2021/06/19 02:20:20;;;;;;;5.20;3.05;;;;;;;21.17;74.98;100952.41;4858657;29;20512;-73
2021/06/19 02:22:48;;;;;;;5.13;2.65;;;;;;;21.24;74.65;100955.31;4858717;29;20057;-73
2021/06/19 02:25:18;;;;;;;3.88;2.55;;;;;;;21.15;75.13;100949.16;4858650;29;20049;-72
2021/06/19 02:32:10;;;;;;;5.38;2.60;;;;;;;21.11;75.53;100943.50;4859280;29;20060;-77
2021/06/19 02:34:38;;;;;;;4.65;2.78;;;;;;;21.21;74.78;100947.66;4859405;29;20053;-72
2021/06/19 02:37:06;;;;;;;4.55;2.60;;;;;;;21.43;74.17;100957.97;4841313;29;20045;-72
2021/06/19 02:39:33;;;;;;;5.47;2.80;;;;;;;21.41;73.84;100967.94;4858017;29;20061;-75
2021/06/19 02:46:29;;;;;;;3.17;2.30;;;;;;;21.53;72.66;100973.31;4858434;29;20493;-73
2021/06/19 02:48:57;;;;;;;4.28;2.80;;;;;;;21.37;72.49;100972.69;4858460;29;20058;-73
2021/06/19 02:51:24;;;;;;;5.55;2.53;;;;;;;21.31;72.67;100977.81;4841252;29;20058;-70
2021/06/19 02:53:51;;;;;;;5.10;2.60;;;;;;;21.53;71.93;100974.09;4855820;29;20412;-72
2021/06/19 03:00:45;;;;;;;5.68;2.80;;;;;;;21.44;71.96;100979.22;4859023;29;20401;-71
2021/06/19 03:03:13;;;;;;;5.63;2.75;;;;;;;21.18;72.79;100977.22;4857780;29;20406;-71
2021/06/19 03:05:40;;;;;;;7.65;2.65;;;;;;;21.18;72.32;100980.03;4857748;29;20066;-71
2021/06/19 03:08:08;;;;;;;5.82;2.97;;;;;;;20.69;73.90;100981.25;4858399;29;20053;-71
2021/06/19 03:10:37;;;;;;;4.18;2.78;;;;;;;20.99;73.50;100982.94;4841571;29;20050;-72
2021/06/19 03:17:42;;;;;;;5.75;2.97;;;;;;;21.10;72.59;100975.53;4858290;29;20462;-71
2021/06/19 03:20:12;;;;;;;5.97;2.85;;;;;;;21.03;72.92;100966.19;4856542;29;20398;-70
2021/06/19 03:22:45;;;;;;;5.80;2.78;;;;;;;20.97;73.43;100965.69;4857286;29;20061;-73
2021/06/19 03:25:15;;;;;;;10.18;2.90;;;;;;;20.78;74.22;100965.78;4858177;29;20072;-74
2021/06/19 03:32:10;;;;;;;4.70;2.95;;;;;;;20.96;72.08;100949.25;4857293;29;20478;-71
2021/06/19 03:34:38;;;;;;;5.22;2.42;;;;;;;20.76;73.21;100964.56;4841202;29;20053;-73
2021/06/19 03:37:05;;;;;;;4.60;2.90;;;;;;;20.75;73.13;100962.94;4858024;29;20056;-73
2021/06/19 03:39:34;;;;;;;6.43;2.70;;;;;;;20.58;73.20;100967.06;4858148;29;20386;-71
2021/06/19 03:42:03;;;;;;;6.13;2.70;;;;;;;20.62;73.21;100965.16;4858124;29;20099;-72
2021/06/19 03:44:30;;;;;;;4.68;2.33;;;;;;;20.50;73.63;100961.72;4840631;29;20050;-71
2021/06/19 03:46:57;;;;;;;4.82;2.63;;;;;;;20.44;74.12;100954.81;4857274;29;20421;-71
2021/06/19 03:49:25;;;;;;;4.68;2.60;;;;;;;20.42;74.25;100962.78;4839701;29;20058;-72
2021/06/19 03:51:52;;;;;;;6.13;2.78;;;;;;;20.51;73.24;100968.94;4840843;29;20112;-72
2021/06/19 03:54:20;;;;;;;7.97;2.70;;;;;;;20.14;74.89;100969.47;4841989;29;20057;-77
2021/06/19 03:56:47;;;;;;;6.47;2.80;;;;;;;20.14;76.24;100963.06;4841297;29;20075;-75
2021/06/19 03:59:15;;;;;;;6.00;2.50;;;;;;;20.13;75.49;100961.44;4858564;29;20057;-78
2021/06/19 04:01:42;;;;;;;4.72;2.50;;;;;;;19.83;76.31;100966.06;4840431;29;20049;-74
2021/06/19 04:04:10;;;;;;;4.55;2.33;;;;;;;19.56;77.34;100967.91;4858197;29;20057;-76
2021/06/19 04:06:37;;;;;;;7.93;2.30;;;;;;;19.76;77.09;100965.91;4841196;29;20046;-74
2021/06/19 04:09:04;;;;;;;7.10;2.55;;;;;;;20.04;76.19;100967.28;4857409;29;20046;-77
2021/06/19 04:11:32;;;;;;;8.15;2.45;;;;;;;20.37;74.95;100963.91;4856941;29;20490;-72
2021/06/19 04:18:37;;;;;;;6.68;2.70;;;;;;;19.31;79.17;100972.16;4857021;29;20053;-70
2021/06/19 04:21:05;;;;;;;3.70;2.47;;;;;;;19.45;79.18;100980.03;4858291;29;20041;-71
2021/06/19 04:23:33;;;;;;;4.80;2.60;;;;;;;19.70;77.77;100982.16;4858603;29;20057;-73
2021/06/19 04:26:02;;;;;;;5.80;2.55;;;;;;;19.83;77.26;100971.66;4857978;29;20497;-72
2021/06/19 04:33:09;;;;;;;6.78;3.17;;;;;;;19.95;76.35;100968.69;4857906;29;20064;-71
2021/06/19 04:35:36;;;;;;;6.15;2.53;;;;;;;19.99;76.12;100970.38;4856963;29;20057;-72
2021/06/19 04:38:04;;;;;;;4.75;2.20;;;;;;;20.40;74.29;100976.34;4857864;29;20049;-70
2021/06/19 04:40:46;;;;;;;4.40;2.63;;;;;;;20.43;74.93;100967.22;4841429;29;20489;-72
2021/06/19 04:43:14;;;;;;;7.25;2.65;;;;;;;20.23;74.43;100963.66;4857301;29;20508;-78
2021/06/19 04:45:42;;;;;;;10.13;2.90;;;;;;;20.27;74.87;100960.91;4810820;29;20065;-78
2021/06/19 04:48:10;;;;;;;5.72;2.72;;;;;;;20.37;74.87;100974.28;4841432;29;20045;-71
2021/06/19 04:50:37;;;;;;;6.15;2.72;;;;;;;20.56;74.24;100966.63;4841349;29;20046;-70
2021/06/19 04:53:06;;;;;;;5.25;2.55;;;;;;;20.56;73.42;100971.41;4857981;29;20054;-79
2021/06/19 04:55:34;;;;;;;6.30;2.33;;;;;;;20.82;73.03;100985.44;4827157;29;20064;-77
2021/06/19 04:58:03;;;;;;;6.20;2.35;;;;;;;20.65;73.06;100988.75;4857443;29;20488;-77
2021/06/19 05:00:33;;;;;;;7.18;2.40;;;;;;;20.65;72.79;100974.78;4857637;29;20058;-81
2021/06/19 05:03:00;;;;;;;5.82;2.47;;;;;;;20.41;73.93;100975.16;4861437;29;20398;-78
2021/06/19 05:05:28;;;;;;;5.07;2.45;;;;;;;20.34;73.93;100981.44;4860340;29;20058;-76
2021/06/19 05:07:56;;;;;;;6.97;2.63;;;;;;;20.16;74.82;100980.31;4861818;29;20073;-76
2021/06/19 05:10:24;;;;;;;4.65;2.33;;;;;;;20.10;74.84;100987.38;4860038;29;20049;-75
2021/06/19 05:12:52;;;;;;;7.97;2.85;;;;;;;20.53;74.29;100989.78;4828134;29;20520;-74
2021/06/19 05:15:26;;;;;;;5.78;2.35;;;;;;;20.67;73.07;100989.19;4843501;29;20050;-75
2021/06/19 05:17:54;;;;;;;4.75;2.65;;;;;;;20.59;73.13;100993.06;4860191;29;20071;-79
2021/06/19 05:20:23;;;;;;;6.82;2.70;;;;;;;20.77;72.67;100983.78;4859903;29;20112;-73
2021/06/19 05:22:50;;;;;;;5.40;2.40;;;;;;;20.48;73.93;100978.09;4861070;29;20354;-76
2021/06/19 05:25:18;;;;;;;6.80;3.05;;;;;;;20.46;74.36;100983.25;4844462;29;20058;-77
2021/06/19 05:27:45;;;;;;;5.30;2.55;;;;;;;20.48;74.42;100994.88;4860835;29;20056;-74
2021/06/19 05:34:41;;;;;;;7.53;2.60;;;;;;;21.35;71.01;100987.09;4860870;29;20400;-73
2021/06/19 05:37:25;;;;;;;8.57;2.90;;;;;;;21.10;71.52;100992.34;4846664;29;20398;-74
2021/06/19 05:39:54;;;;;;;5.93;2.78;;;;;;;20.89;71.47;100979.94;4846526;29;20241;-78
2021/06/19 05:42:22;;;;;;;5.03;2.63;;;;;;;20.58;72.92;100978.25;4862887;29;20445;-78
2021/06/19 05:49:27;;;;;;;7.40;3.08;;;;;;;20.92;72.61;100966.00;4860377;29;20065;-76
2021/06/19 05:51:54;;;;;;;5.97;3.15;;;;;;;20.94;72.03;100965.63;4859165;29;20092;-77
2021/06/19 05:54:21;;;;;;;7.93;3.10;;;;;;;20.96;71.97;100966.06;4859604;29;20391;-80
2021/06/19 05:56:49;;;;;;;5.05;2.78;;;;;;;20.82;72.69;100968.63;4860785;29;20061;-77
2021/06/19 05:59:16;;;;;;;12.60;3.35;;;;;;;21.12;72.02;100967.56;4843517;29;20065;-80
2021/06/19 06:01:44;;;;;;;5.65;2.72;;;;;;;20.82;72.76;100969.47;4859541;29;20053;-74
2021/06/19 06:04:11;;;;;;;5.30;3.40;;;;;;;20.94;72.09;100976.81;4859176;29;20058;-77
2021/06/19 06:06:38;;;;;;;7.30;3.33;;;;;;;21.14;71.89;100976.41;4858825;29;20061;-79
2021/06/19 06:09:08;;;;;;;4.30;2.78;;;;;;;21.41;70.73;100974.34;4859957;29;20061;-76
2021/06/19 06:11:35;;;;;;;9.97;3.40;;;;;;;21.60;70.05;100965.78;4842593;29;20516;-74
2021/06/19 06:14:03;;;;;;;7.10;3.42;;;;;;;21.02;72.04;100953.41;4842164;29;20301;-74
2021/06/19 06:16:30;;;;;;;9.35;3.20;;;;;;;21.19;72.27;100961.22;4859072;29;20061;-71
2021/06/19 06:18:58;;;;;;;7.57;3.50;;;;;;;21.15;71.79;100949.16;4859425;29;20060;-74
2021/06/19 06:21:28;;;;;;;8.52;3.60;;;;;;;20.66;73.74;100949.19;4858869;29;20056;-79
2021/06/19 06:23:55;;;;;;;7.47;3.42;;;;;;;20.77;74.31;100955.78;4859141;29;20050;-77
2021/06/19 06:26:23;;;;;;;11.57;3.80;;;;;;;20.86;73.28;100955.50;4860990;29;20058;-70
2021/06/19 06:28:50;;;;;;;8.45;3.65;;;;;;;20.65;73.65;100957.97;4843517;29;20069;-77
2021/06/19 06:31:20;;;;;;;7.00;4.10;;;;;;;20.52;74.76;100948.19;4859439;29;20064;-71
2021/06/19 06:33:47;;;;;;;7.18;3.40;;;;;;;20.96;73.43;100954.84;4859292;29;20054;-73
2021/06/19 06:36:15;;;;;;;6.10;3.55;;;;;;;20.91;73.16;100949.59;4827762;29;20054;-73
2021/06/19 06:38:42;;;;;;;8.95;3.47;;;;;;;21.10;73.13;100947.50;4843360;29;20057;-76
2021/06/19 06:41:11;;;;;;;8.95;4.25;;;;;;;20.97;71.87;100950.88;4858394;29;20054;-73
2021/06/19 06:43:38;;;;;;;8.80;3.88;;;;;;;20.91;73.37;100957.97;4859534;29;20497;-73
2021/06/19 06:50:43;;;;;;;7.70;4.00;;;;;;;20.98;72.53;100974.91;4859320;29;20068;-71
2021/06/19 06:53:11;;;;;;;7.25;3.70;;;;;;;20.90;73.22;100981.59;4857415;29;20050;-75
2021/06/19 06:55:38;;;;;;;8.60;3.67;;;;;;;21.20;72.68;100983.25;4841815;29;20049;-72
2021/06/19 06:58:06;;;;;;;8.15;3.67;;;;;;;21.06;72.73;100983.06;4827760;29;20053;-71
2021/06/19 07:00:33;;;;;;;7.35;3.78;;;;;;;20.98;72.80;100986.94;4858125;29;20050;-73
2021/06/19 07:03:01;;;;;;;6.47;3.60;;;;;;;20.95;73.18;100968.06;4826413;29;20061;-73
2021/06/19 07:05:28;;;;;;;7.55;4.05;;;;;;;20.93;73.00;100970.44;4858822;29;20122;-75
2021/06/19 07:07:55;;;;;;;8.05;3.38;;;;;;;21.33;72.21;100989.47;4858023;29;20440;-76
2021/06/19 07:10:23;;;;;;;7.30;3.72;;;;;;;21.52;71.54;100994.91;4858297;29;20064;-71
2021/06/19 07:12:50;;;;;;;10.05;4.28;;;;;;;22.10;70.07;100986.84;4858591;29;20046;-79
2021/06/19 07:15:21;;;;;;;7.57;3.72;;;;;;;22.76;70.31;100972.66;4856359;29;20060;-70
2021/06/19 07:18:04;;;;;;;9.48;3.50;;;;;;;23.40;64.87;100971.09;4856749;29;20058;-79
2021/06/19 07:20:31;;;;;;;8.25;4.00;;;;;;;23.53;63.34;100972.38;4843028;29;20054;-77
2021/06/19 07:22:59;;;;;;;9.02;3.45;;;;;;;23.53;63.02;100963.94;4857385;29;20054;-75
2021/06/19 07:25:26;;;;;;;8.15;3.50;;;;;;;23.54;62.34;100961.94;4857400;29;20041;-77
2021/06/19 07:27:54;;;;;;;8.43;4.40;;;;;;;23.03;63.16;100957.19;4841094;29;20061;-76
2021/06/19 07:30:22;;;;;;;6.70;4.13;;;;;;;22.96;64.49;100956.34;4826731;29;20060;-77
2021/06/19 07:32:49;;;;;;;9.32;3.75;;;;;;;23.12;63.66;100945.59;4857999;29;20134;-79
2021/06/19 07:35:17;;;;;;;8.68;4.57;;;;;;;22.58;65.41;100940.81;4811835;29;20054;-74
2021/06/19 07:37:45;;;;;;;7.88;4.20;;;;;;;22.78;65.67;100942.19;4858411;29;20524;-77
2021/06/19 07:40:14;;;;;;;10.10;4.65;;;;;;;23.22;64.08;100919.56;4827325;29;20489;-75
2021/06/19 07:42:43;;;;;;;7.68;4.78;;;;;;;23.26;63.15;100903.50;4841713;29;20053;-75
2021/06/19 07:45:10;;;;;;;9.77;4.63;;;;;;;22.61;64.58;100875.47;4841493;29;20056;-82
2021/06/19 07:47:39;;;;;;;8.45;4.43;;;;;;;21.65;68.82;100883.34;4857333;29;20065;-75
2021/06/19 07:50:12;;;;;;;11.05;4.78;;;;;;;21.48;69.86;100881.94;4842884;29;20092;-78
2021/06/19 07:52:42;;;;;;;8.77;4.80;;;;;;;21.30;70.73;100861.31;4841938;29;20056;-73
2021/06/19 07:55:10;;;;;;;8.45;4.40;;;;;;;21.24;71.25;100863.66;4843402;29;20064;-76
2021/06/19 07:57:37;;;;;;;8.18;4.97;;;;;;;21.04;71.32;100864.97;4857807;29;20065;-74
2021/06/19 08:00:05;;;;;;;10.52;5.50;;;;;;;21.27;70.91;100878.09;4841085;29;20073;-78
2021/06/19 08:02:34;;;;;;;7.85;4.55;;;;;;;21.44;70.94;100886.72;4840730;29;20057;-73
2021/06/19 08:05:02;;;;;;;11.05;6.63;;;;;;;21.98;68.81;100872.09;4840246;29;20061;-71
2021/06/19 08:07:29;;;;;;;10.02;4.82;;;;;;;21.85;69.08;100865.97;4856655;29;20065;-69
2021/06/19 08:09:57;;;;;;;10.90;4.80;;;;;;;22.37;67.65;100864.03;4857099;29;20056;-72
2021/06/19 08:12:24;;;;;;;9.82;4.93;;;;;;;22.59;66.25;100877.84;4825751;29;20050;-70
2021/06/19 08:14:52;;;;;;;10.63;4.78;;;;;;;22.81;65.59;100873.16;4857118;29;20049;-75
2021/06/19 08:21:51;;;;;;;11.52;5.68;;;;;;;21.72;68.16;100836.56;4915431;29;20060;-68
2021/06/19 08:24:18;;;;;;;11.57;5.72;;;;;;;21.37;70.42;100841.78;4882943;29;20056;-72
2021/06/19 08:26:46;;;;;;;9.00;5.80;;;;;;;21.32;70.40;100855.34;4915673;29;20056;-70
2021/06/19 08:29:13;;;;;;;13.13;5.70;;;;;;;21.62;69.96;100870.09;4883657;29;20416;-71
2021/06/19 08:36:04;;;;;;;9.40;5.55;;;;;;;;;;4917216;29;20051;-73
2021/06/19 08:38:31;;;;;;;12.35;5.68;;;;;;;21.78;68.93;100842.63;4917129;29;20048;-77
2021/06/19 08:41:00;;;;;;;12.27;5.28;;;;;;;21.74;69.36;100836.97;4902172;29;20052;-71
2021/06/19 08:43:29;;;;;;;13.05;5.30;;;;;;;21.92;68.55;100835.19;4919287;29;20063;-69
2021/06/19 08:45:57;;;;;;;13.93;5.50;;;;;;;22.00;68.56;100847.28;4918659;29;20063;-71
2021/06/19 08:48:25;;;;;;;12.48;5.43;;;;;;;22.10;68.17;100847.38;4901932;29;20064;-68
2021/06/19 08:50:53;;;;;;;10.45;7.05;;;;;;;22.22;67.92;100835.03;4886150;29;20048;-70
2021/06/19 08:53:20;;;;;;;9.20;6.22;;;;;;;22.08;67.67;100843.31;4917820;29;20147;-71
2021/06/19 08:56:04;;;;;;;9.52;6.40;;;;;;;22.29;67.65;100843.50;4901011;29;20064;-72
2021/06/19 08:58:31;;;;;;;10.75;5.50;;;;;;;22.35;66.92;100831.50;4917309;29;20056;-74
2021/06/19 09:00:59;;;;;;;9.93;5.50;;;;;;;22.22;67.89;100827.44;4918070;29;20052;-71
2021/06/19 09:07:57;;;;;;;13.23;6.65;;;;;;;22.71;65.68;100829.78;4901059;29;20406;-77
2021/06/19 09:10:28;;;;;;;10.98;5.53;;;;;;;22.57;66.60;100817.66;4917360;29;20060;-72
2021/06/19 09:13:14;;;;;;;9.07;5.70;;;;;;;22.87;65.94;100819.06;4918627;29;20048;-71
2021/06/19 09:15:44;;;;;;;10.23;6.10;;;;;;;23.03;65.12;100819.50;4918417;29;20056;-76
2021/06/19 09:22:36;;;;;;;13.30;10.50;;;;;;;23.41;64.09;100806.84;4858758;29;20033;-73
2021/06/19 09:25:04;;;;;;;15.32;7.68;;;;;;;23.45;63.12;100804.81;4843276;29;20058;-71
2021/06/19 09:27:42;;;;;;;9.75;4.43;;;;;;;23.54;65.44;100810.09;4842652;29;20061;-61
2021/06/19 09:30:19;;;;;;;9.80;3.80;;;;;;;24.49;61.77;100816.53;4856365;29;20059;-60
2021/06/19 09:37:14;;;;;;;9.05;4.15;;;;;;;25.48;56.97;100823.47;4858350;29;20057;-58
2021/06/19 09:39:43;;;;;;;9.65;3.53;;;;;;;25.72;56.98;100812.47;4843184;29;20533;-59
2021/06/19 09:42:15;;;;;;;8.60;4.03;;;;;;;25.78;56.28;100807.97;4843724;29;20060;-60
2021/06/19 09:44:47;;;;;;;9.75;3.40;;;;;;;25.95;55.90;100809.84;4841988;29;20049;-60
2021/06/19 09:47:17;;;;;;;6.55;3.67;;;;;;;26.11;55.11;100804.50;4858849;29;20061;-58
2021/06/19 09:49:49;;;;;;;6.90;3.25;;;;;;;26.23;54.48;100806.81;4858716;29;20394;-58
2021/06/19 09:52:28;;;;;;;10.73;4.10;;;;;;;26.06;54.52;100804.94;4857781;29;20076;-58
2021/06/19 09:54:57;;;;;;;8.23;3.78;;;;;;;26.19;54.07;100806.03;4858331;29;20078;-62
2021/06/19 09:57:42;;;;;;;6.47;3.47;;;;;;;26.20;54.26;100805.63;4842601;29;20045;-56
2021/06/19 10:00:17;;;;;;;6.93;3.25;;;;;;;26.33;53.80;100814.38;4841903;29;20405;-60
2021/06/19 10:02:45;;;;;;;8.95;3.08;;;;;;;26.58;53.46;100804.44;4858576;29;20053;-58
2021/06/19 10:05:13;;;;;;;8.68;4.20;;;;;;;26.61;52.85;100809.25;4858540;29;20064;-59
2021/06/19 10:07:40;;;;;;;8.40;3.33;;;;;;;26.63;53.06;100803.19;4858280;29;20058;-58
2021/06/19 10:10:10;;;;;;;7.88;3.03;;;;;;;26.89;52.31;100790.38;4841665;29;20513;-58
2021/06/19 10:12:38;;;;;;;8.77;3.83;;;;;;;27.04;52.05;100777.69;4842638;29;20061;-65
2021/06/19 10:15:09;;;;;;;10.38;4.40;;;;;;;26.80;52.24;100778.81;4857624;29;20053;-61
2021/06/19 10:17:40;;;;;;;7.35;3.25;;;;;;;26.62;53.27;100776.94;4857995;29;20062;-60
2021/06/19 10:20:10;;;;;;;9.70;4.00;;;;;;;26.65;52.84;100778.13;4858379;29;20390;-63
2021/06/19 10:22:40;;;;;;;12.05;4.90;;;;;;;26.74;53.78;100780.47;4840917;29;20053;-60
2021/06/19 10:25:10;;;;;;;9.85;4.50;;;;;;;26.53;54.02;100773.03;4857873;29;20069;-59
2021/06/19 10:27:42;;;;;;;15.35;5.45;;;;;;;26.34;54.27;100763.13;4827139;29;20061;-60
2021/06/19 10:30:11;;;;;;;10.70;5.03;;;;;;;26.41;54.21;100765.88;4841744;29;20058;-62
2021/06/19 10:32:48;;;;;;;10.93;4.40;;;;;;;26.40;54.95;100766.28;4841340;29;20486;-58
2021/06/19 10:39:45;;;;;;;7.38;4.05;;;;;;;26.46;54.09;100765.44;4859374;29;20050;-60
2021/06/19 10:42:23;;;;;;;11.13;4.97;;;;;;;26.48;53.88;100760.13;4827291;29;20049;-61
2021/06/19 10:44:59;;;;;;;8.77;3.88;;;;;;;25.91;55.62;100749.81;4841076;29;20058;-61
2021/06/19 10:47:32;;;;;;;8.13;3.63;;;;;;;26.33;54.20;100750.22;4857840;29;20053;-59
2021/06/19 10:50:02;;;;;;;7.55;3.40;;;;;;;26.49;53.59;100741.19;4841075;29;20056;-62
2021/06/19 10:52:40;;;;;;;6.17;2.97;;;;;;;26.64;53.71;100740.59;4858091;29;20046;-61
2021/06/19 10:55:11;;;;;;;12.57;4.15;;;;;;;26.78;53.35;100730.38;4842238;29;20695;-62
2021/06/19 10:57:48;;;;;;;6.10;3.60;;;;;;;26.84;52.72;100737.16;4858942;29;20053;-62
2021/06/19 11:00:30;;;;;;;7.05;2.80;;;;;;;27.06;52.44;100727.97;4857507;29;20056;-61
2021/06/19 11:02:59;;;;;;;7.82;4.20;;;;;;;26.46;52.75;100725.88;4841236;29;20049;-61
2021/06/19 11:05:42;;;;;;;8.43;4.30;;;;;;;25.96;54.56;100724.75;4857363;29;20241;-61
2021/06/19 11:08:11;;;;;;;5.85;3.45;;;;;;;26.51;53.55;100722.59;4840945;29;20481;-62
2021/06/19 11:10:44;;;;;;;7.18;3.83;;;;;;;26.72;52.85;100709.44;4841082;29;20375;-61
2021/06/19 11:13:30;;;;;;;9.20;4.07;;;;;;;26.89;52.46;100703.56;4857357;29;20060;-60
2021/06/19 11:15:59;;;;;;;7.78;3.60;;;;;;;27.13;51.81;100708.06;4857581;29;20050;-61
2021/06/19 11:22:53;;;;;;;8.30;3.45;;;;;;;27.61;51.23;100708.56;4915906;29;20067;-62
2021/06/19 11:25:35;;;;;;;10.27;4.30;;;;;;;27.59;50.40;100705.38;4915593;29;20068;-62
2021/06/19 11:28:08;;;;;;;6.18;3.88;;;;;;;27.68;50.31;100704.81;4898700;29;20056;-62
2021/06/19 11:30:35;;;;;;;7.40;3.78;;;;;;;26.85;51.67;100707.66;4915751;29;20400;-64
2021/06/19 11:33:25;;;;;;;7.70;4.68;;;;;;;27.21;51.60;100703.13;4899395;29;20055;-58
2021/06/19 11:36:04;;;;;;;7.68;3.92;;;;;;;27.23;51.15;100700.66;4915399;29;20052;-60
2021/06/19 11:38:58;;;;;;;7.83;3.83;;;;;;;27.16;51.41;100703.59;4915740;29;20385;-62
2021/06/19 11:41:31;;;;;;;8.02;3.38;;;;;;;27.33;51.19;100713.88;4916026;29;20780;-62
2021/06/19 11:43:58;;;;;;;7.70;4.05;;;;;;;27.42;50.42;100705.66;4915560;29;20048;-62
2021/06/19 11:46:26;;;;;;;7.28;4.03;;;;;;;27.47;50.60;100708.00;4915689;29;20063;-70
2021/06/19 11:52:46;;;;;;;7.32;4.60;;;;;;;27.65;49.71;100700.81;4915109;29;20048;-64
2021/06/19 11:55:21;;;;;;;8.15;3.63;;;;;;;27.60;49.50;100692.00;4914607;29;20056;-60
2021/06/19 11:57:57;;;;;;;8.68;4.35;;;;;;;27.85;48.74;100688.75;4897825;29;20055;-63
2021/06/19 12:00:25;;;;;;;8.38;3.72;;;;;;;27.98;48.72;100681.28;4914851;29;20420;-64
2021/06/19 12:02:53;;;;;;;11.98;4.00;;;;;;;27.77;48.50;100687.28;4915397;29;20074;-65
2021/06/19 12:09:57;;;;;;;9.25;3.60;;;;;;;28.23;47.41;100676.72;4914512;29;20052;-64
2021/06/19 12:12:25;;;;;;;7.30;3.20;;;;;;;27.54;48.46;100671.91;4898623;29;20082;-63
2021/06/19 12:14:52;;;;;;;8.38;3.42;;;;;;;27.63;48.80;100669.28;4915244;29;20049;-58
2021/06/19 12:17:21;;;;;;;6.40;4.25;;;;;;;26.81;50.26;100667.34;4914408;29;20060;-62
2021/06/19 12:19:48;;;;;;;10.60;4.28;;;;;;;26.56;51.63;100665.63;4914642;29;20059;-59
2021/06/19 12:22:17;;;;;;;8.52;4.13;;;;;;;26.52;51.23;100667.69;4856105;29;20066;-58
2021/06/19 12:24:49;;;;;;;8.48;5.00;;;;;;;26.27;51.86;100663.56;4838079;29;20089;-60
2021/06/19 12:27:21;;;;;;;7.35;3.92;;;;;;;26.47;52.07;100648.38;4837989;29;20046;-60
2021/06/19 12:29:55;;;;;;;8.45;5.07;;;;;;;26.72;50.97;100648.06;4839184;29;20490;-57
2021/06/19 12:32:27;;;;;;;9.65;4.30;;;;;;;26.67;50.92;100645.72;4837721;29;20054;-50
2021/06/19 12:35:05;;;;;;;6.80;3.97;;;;;;;27.12;50.50;100647.09;4838524;29;20077;-53
2021/06/19 12:37:41;;;;;;;10.10;4.60;;;;;;;27.40;49.59;100648.69;4839535;29;20077;-53
2021/06/19 12:40:11;;;;;;;9.77;3.75;;;;;;;27.28;49.93;100640.78;4835845;29;20490;-57
2021/06/19 12:42:46;;;;;;;;;;;;;;;27.02;50.86;100633.09;4838698;29;20109;-57
2021/06/19 12:45:18;;;;;;;12.65;4.40;;;;;;;26.91;51.08;100621.97;4838372;29;19924;-53
2021/06/19 12:47:48;;;;;;;11.20;4.80;;;;;;;27.00;51.16;100608.09;4839551;29;20061;-55
2021/06/19 12:50:21;;;;;;;7.10;4.10;;;;;;;27.07;50.97;100607.19;4837800;29;20077;-57
2021/06/19 12:52:55;;;;;;;9.35;4.30;;;;;;;26.93;51.05;100591.25;4837632;29;20061;-60
2021/06/19 12:55:23;;;;;;;9.60;4.45;;;;;;;27.34;50.53;100588.16;4837497;29;20050;-58
2021/06/19 12:58:03;;;;;;;9.32;4.20;;;;;;;27.35;50.92;100584.13;4838209;29;20086;-60
2021/06/19 13:00:45;;;;;;;6.72;4.07;;;;;;;27.35;50.52;100565.13;4836088;29;20425;-57
2021/06/19 13:03:20;;;;;;;9.20;4.60;;;;;;;27.40;49.93;100575.13;4839022;29;20355;-49
2021/06/19 13:05:58;;;;;;;9.65;4.57;;;;;;;27.47;49.74;100560.84;4837561;29;20050;-57
2021/06/19 13:08:28;;;;;;;7.82;4.40;;;;;;;27.32;49.79;100559.53;4835971;29;20198;-54
2021/06/19 13:10:58;;;;;;;7.80;4.60;;;;;;;26.73;51.14;100555.63;4836097;29;20050;-55
2021/06/19 13:13:42;;;;;;;7.70;5.15;;;;;;;26.52;51.67;100543.38;4838990;29;20065;-66
2021/06/19 13:16:11;;;;;;;8.25;4.55;;;;;;;26.83;51.39;100526.38;4836542;29;20065;-62
2021/06/19 13:18:40;;;;;;;7.63;4.60;;;;;;;27.10;50.63;100519.47;4838379;29;20486;-57